createdAt,value
2019-03-12T00:00:32.342Z,77.00
2019-03-12T00:03:00.907Z,77.30
2019-03-12T00:05:29.424Z,77.70
2019-03-12T00:07:57.849Z,78.20
2019-03-12T00:10:26.269Z,78.50
2019-03-12T00:12:54.718Z,79.00
2019-03-12T00:15:23.243Z,79.10
2019-03-12T00:17:51.658Z,79.20
2019-03-12T00:20:20.108Z,80.10
2019-03-12T00:22:48.590Z,79.60
2019-03-12T00:25:25.974Z,80.40
2019-03-12T00:27:54.406Z,80.90
2019-03-12T00:30:22.842Z,81.40
2019-03-12T00:32:51.290Z,81.40
2019-03-12T00:35:19.788Z,81.50
2019-03-12T00:37:48.225Z,81.90
2019-03-12T00:40:17.946Z,82.00
2019-03-12T00:42:46.413Z,82.20
2019-03-12T00:45:14.904Z,82.60
2019-03-12T00:47:43.380Z,83.00
2019-03-12T00:50:13.313Z,83.40
2019-03-12T00:52:41.733Z,84.00
2019-03-12T00:55:11.229Z,84.20
2019-03-12T00:57:39.665Z,84.30
2019-03-12T01:00:13.601Z,84.30
2019-03-12T01:02:42.142Z,84.10
2019-03-12T01:05:10.840Z,83.70
2019-03-12T01:07:39.286Z,83.80
2019-03-12T01:10:10.713Z,82.70
2019-03-12T01:12:39.250Z,82.20
2019-03-12T01:15:10.535Z,82.00
2019-03-12T01:17:39.074Z,82.30
2019-03-12T01:20:12.898Z,82.60
2019-03-12T01:22:41.459Z,82.90
2019-03-12T01:25:12.930Z,83.10
2019-03-12T01:27:41.323Z,83.60
2019-03-12T01:30:18.841Z,83.90
2019-03-12T01:32:47.260Z,84.00
2019-03-12T01:35:15.857Z,84.20
2019-03-12T01:37:44.327Z,84.50
2019-03-12T01:40:14.212Z,84.70
2019-03-12T01:43:01.994Z,84.70
2019-03-12T01:45:30.468Z,84.70
2019-03-12T01:47:58.886Z,84.60
2019-03-12T01:50:27.395Z,84.50
2019-03-12T01:52:55.914Z,84.30
2019-03-12T01:55:24.434Z,84.40
2019-03-12T01:57:52.868Z,84.60
2019-03-12T02:00:21.479Z,84.60
2019-03-12T02:02:50.037Z,84.40
2019-03-12T02:05:18.715Z,84.10
2019-03-12T02:07:47.208Z,83.90
2019-03-12T02:10:28.004Z,83.90
2019-03-12T02:12:56.462Z,83.50
2019-03-12T02:15:24.921Z,83.40
2019-03-12T02:17:53.347Z,83.10
2019-03-12T02:20:21.804Z,83.10
2019-03-12T02:22:50.304Z,82.90
2019-03-12T02:25:21.907Z,82.80
2019-03-12T02:27:50.353Z,83.00
2019-03-12T02:30:21.075Z,83.10
2019-03-12T02:32:49.691Z,83.10
2019-03-12T02:35:18.255Z,83.10
2019-03-12T02:37:46.695Z,83.10
2019-03-12T02:40:16.093Z,83.30
2019-03-12T02:42:44.539Z,83.50
2019-03-12T02:45:36.938Z,83.60
2019-03-12T02:48:05.429Z,84.20
2019-03-12T02:50:34.078Z,83.10
2019-03-12T02:53:02.699Z,82.80
2019-03-12T02:55:31.266Z,82.10
2019-03-12T02:57:59.830Z,81.90
2019-03-12T03:00:28.233Z,81.50
2019-03-12T03:03:02.478Z,81.70
2019-03-12T03:05:32.589Z,81.70
2019-03-12T03:08:08.475Z,81.50
2019-03-12T03:10:36.911Z,81.70
2019-03-12T03:13:05.544Z,81.90
2019-03-12T03:15:47.573Z,82.10
2019-03-12T03:18:16.031Z,82.60
2019-03-12T03:20:44.448Z,82.30
2019-03-12T03:23:12.865Z,82.00
2019-03-12T03:26:00.642Z,81.70
2019-03-12T03:28:49.010Z,82.20
2019-03-12T03:31:17.558Z,82.30
2019-03-12T03:33:46.061Z,81.50
2019-03-12T03:36:14.555Z,81.70
2019-03-12T03:38:42.983Z,81.80
2019-03-12T03:41:11.489Z,82.10
2019-03-12T03:43:39.992Z,82.20
2019-03-12T03:46:08.468Z,82.20
2019-03-12T03:48:36.931Z,82.20
2019-03-12T03:51:05.370Z,82.40
2019-03-12T03:53:33.802Z,82.80
2019-03-12T03:56:02.233Z,83.20
2019-03-12T03:58:30.669Z,83.30
2019-03-12T04:00:59.108Z,83.50
2019-03-12T04:03:27.563Z,83.50
2019-03-12T04:05:56.065Z,83.60
2019-03-12T04:08:24.479Z,83.60
2019-03-12T04:10:53.094Z,83.70
2019-03-12T04:13:21.526Z,83.80
2019-03-12T04:15:49.976Z,84.00
2019-03-12T04:18:18.394Z,83.80
2019-03-12T04:20:46.840Z,83.70
2019-03-12T04:23:16.133Z,83.90
2019-03-12T04:25:44.852Z,83.90
2019-03-12T04:28:13.266Z,83.80
2019-03-12T04:30:41.734Z,84.00
2019-03-12T04:33:21.980Z,84.10
2019-03-12T04:35:57.856Z,84.20
2019-03-12T04:38:26.287Z,84.60
2019-03-12T04:40:54.890Z,84.70
2019-03-12T04:43:23.315Z,84.80
2019-03-12T04:45:54.383Z,84.90
2019-03-12T04:48:22.842Z,85.20
2019-03-12T04:50:59.482Z,86.10
2019-03-12T04:53:27.924Z,85.80
2019-03-12T04:55:56.408Z,85.40
2019-03-12T04:58:25.029Z,85.50
2019-03-12T05:00:53.624Z,85.60
2019-03-12T05:03:22.064Z,85.70
2019-03-12T05:05:50.499Z,86.10
2019-03-12T05:08:19.017Z,86.30
2019-03-12T05:10:47.502Z,86.40
2019-03-12T05:13:15.966Z,86.50
2019-03-12T05:15:44.494Z,86.60
2019-03-12T05:18:12.918Z,87.00
2019-03-12T05:20:41.364Z,87.20
2019-03-12T05:23:09.782Z,87.40
2019-03-12T05:25:38.238Z,87.60
2019-03-12T05:28:06.756Z,87.80
2019-03-12T05:30:35.237Z,87.80
2019-03-12T05:33:03.629Z,87.90
2019-03-12T05:35:32.167Z,88.10
2019-03-12T05:38:00.590Z,88.30
2019-03-12T05:40:29.055Z,88.30
2019-03-12T05:42:57.449Z,88.30
2019-03-12T05:45:28.930Z,88.20
2019-03-12T05:47:57.386Z,88.00
2019-03-12T05:50:25.870Z,87.90
2019-03-12T05:53:31.676Z,87.70
2019-03-12T05:56:00.105Z,87.30
2019-03-12T05:58:28.511Z,87.00
2019-03-12T06:00:57.301Z,86.70
2019-03-12T06:03:25.811Z,86.90
2019-03-12T06:05:54.225Z,86.70
2019-03-12T06:08:22.691Z,86.40
2019-03-12T06:10:51.120Z,86.30
2019-03-12T06:13:19.585Z,86.30
2019-03-12T06:15:48.014Z,86.10
2019-03-12T06:18:16.530Z,85.90
2019-03-12T06:20:44.980Z,85.70
2019-03-12T06:23:15.210Z,85.40
2019-03-12T06:25:43.639Z,85.20
2019-03-12T06:28:12.053Z,85.00
2019-03-12T06:30:51.108Z,85.00
2019-03-12T06:33:37.540Z,84.70
2019-03-12T06:36:25.970Z,84.60
2019-03-12T06:39:12.551Z,84.70
2019-03-12T06:41:48.123Z,84.30
2019-03-12T06:44:33.562Z,84.00
2019-03-12T06:47:14.901Z,83.80
2019-03-12T06:52:41.469Z,84.00
2019-03-12T06:55:19.424Z,83.60
2019-03-12T06:58:14.605Z,83.40
2019-03-12T07:00:47.712Z,83.20
2019-03-12T07:03:17.757Z,83.00
2019-03-12T07:06:03.730Z,82.80
2019-03-12T07:08:33.775Z,82.60
2019-03-12T07:11:19.240Z,82.60
2019-03-12T07:13:49.338Z,82.80
2019-03-12T07:16:22.330Z,82.20
2019-03-12T07:19:07.580Z,81.40
2019-03-12T07:21:37.699Z,80.50
2019-03-12T07:24:07.829Z,80.10
2019-03-12T07:26:40.591Z,79.80
2019-03-12T07:29:10.660Z,79.30
2019-03-12T07:31:52.676Z,78.50
2019-03-12T07:34:39.004Z,77.40
2019-03-12T07:37:11.826Z,75.80
2019-03-12T07:39:41.883Z,73.10
2019-03-12T07:42:14.914Z,72.30
2019-03-12T07:44:49.964Z,71.80
2019-03-12T07:47:35.819Z,70.80
2019-03-12T07:50:15.383Z,70.10
2019-03-12T07:52:45.482Z,69.50
2019-03-12T07:55:24.759Z,69.40
2019-03-12T07:57:54.863Z,68.30
2019-03-12T08:00:24.960Z,67.00
2019-03-12T08:02:55.062Z,65.50
2019-03-12T08:05:28.062Z,65.20
2019-03-12T08:10:51.981Z,66.00
2019-03-12T08:13:37.422Z,65.50
2019-03-12T08:16:09.935Z,64.20
2019-03-12T08:18:50.283Z,62.60
2019-03-12T08:21:23.331Z,63.20
2019-03-12T08:23:52.670Z,64.30
2019-03-12T08:26:37.808Z,64.20
2019-03-12T08:29:19.711Z,64.30
2019-03-12T08:34:40.928Z,64.40
2019-03-12T08:37:26.098Z,63.40
2019-03-12T08:39:56.212Z,64.50
2019-03-12T08:42:57.551Z,65.20
2019-03-12T08:45:45.365Z,65.90
2019-03-12T08:48:33.900Z,67.00
2019-03-12T08:51:10.233Z,65.40
2019-03-12T08:53:43.184Z,65.60
2019-03-12T08:56:12.519Z,66.30
2019-03-12T08:58:58.903Z,67.70
2019-03-12T09:01:47.313Z,68.20
2019-03-12T09:04:31.599Z,68.50
2019-03-12T09:10:24.166Z,67.20
2019-03-12T09:12:54.230Z,67.30
2019-03-12T09:15:40.667Z,67.30
2019-03-12T09:18:10.795Z,67.70
2019-03-12T09:20:40.889Z,66.60
2019-03-12T09:23:10.954Z,65.90
2019-03-12T09:25:43.905Z,65.90
2019-03-12T09:28:15.887Z,66.80
2019-03-12T09:30:46.059Z,67.00
2019-03-12T09:33:16.179Z,66.20
2019-03-12T09:35:57.195Z,65.80
2019-03-12T09:38:27.258Z,64.70
2019-03-12T09:41:00.019Z,64.80
2019-03-12T09:44:05.975Z,65.30
2019-03-12T09:46:36.070Z,64.20
2019-03-12T09:49:12.001Z,62.60
2019-03-12T09:52:04.262Z,62.40
2019-03-12T09:54:46.378Z,62.40
2019-03-12T09:57:34.644Z,62.10
2019-03-12T10:00:16.352Z,61.70
2019-03-12T10:02:58.546Z,61.00
2019-03-12T10:05:31.327Z,60.40
2019-03-12T10:08:23.446Z,59.60
2019-03-12T10:10:59.374Z,58.70
2019-03-12T10:13:32.249Z,58.00
2019-03-12T10:16:02.337Z,58.60
2019-03-12T10:18:35.215Z,58.80
2019-03-12T10:23:56.255Z,58.80
2019-03-12T10:26:35.574Z,57.90
2019-03-12T10:29:05.881Z,57.10
2019-03-12T10:31:35.933Z,56.00
2019-03-12T10:34:29.507Z,55.60
2019-03-12T10:36:54.250Z,55.60
2019-03-12T10:39:59.298Z,55.70
2019-03-12T10:42:35.400Z,55.30
2019-03-12T10:45:23.768Z,54.00
2019-03-12T10:47:56.624Z,54.10
2019-03-12T10:50:25.167Z,54.00
2019-03-12T10:52:53.681Z,54.50
2019-03-12T10:55:22.359Z,53.50
2019-03-12T10:57:50.832Z,53.20
2019-03-12T11:00:19.986Z,54.30
2019-03-12T11:02:48.509Z,54.30
2019-03-12T11:05:18.241Z,53.30
2019-03-12T11:07:46.817Z,53.80
2019-03-12T11:10:21.442Z,54.20
2019-03-12T11:12:49.864Z,54.00
2019-03-12T11:15:18.573Z,53.80
2019-03-12T11:17:49.910Z,53.00
2019-03-12T11:20:25.613Z,52.90
2019-03-12T11:22:54.154Z,52.20
2019-03-12T11:25:41.967Z,51.10
2019-03-12T11:28:10.812Z,51.70
2019-03-12T11:30:39.314Z,51.80
2019-03-12T11:33:07.776Z,51.20
2019-03-12T11:35:39.090Z,50.70
2019-03-12T11:38:06.429Z,51.00
2019-03-12T11:40:40.941Z,51.20
2019-03-12T11:43:09.587Z,51.70
2019-03-12T11:45:39.169Z,51.80
2019-03-12T11:48:10.288Z,51.20
2019-03-12T11:50:39.090Z,50.60
2019-03-12T11:53:07.507Z,50.80
2019-03-12T11:55:36.133Z,51.30
2019-03-12T11:58:04.691Z,51.00
2019-03-12T12:00:37.669Z,51.10
2019-03-12T12:03:06.286Z,50.60
2019-03-12T12:05:34.739Z,51.60
2019-03-12T12:08:03.253Z,50.60
2019-03-12T12:10:31.686Z,50.40
2019-03-12T12:13:00.194Z,50.20
2019-03-12T12:15:47.149Z,50.20
2019-03-12T12:18:15.949Z,51.00
2019-03-12T12:20:44.422Z,50.80
2019-03-12T12:23:13.044Z,51.10
2019-03-12T12:25:41.523Z,50.50
2019-03-12T12:28:10.016Z,49.80
2019-03-12T12:30:38.623Z,49.90
2019-03-12T12:33:07.277Z,49.90
2019-03-12T12:35:35.771Z,50.10
2019-03-12T12:38:04.359Z,49.70
2019-03-12T12:40:32.796Z,49.60
2019-03-12T12:43:01.214Z,49.70
2019-03-12T12:45:35.383Z,49.60
2019-03-12T12:48:07.420Z,49.30
2019-03-12T12:50:35.858Z,49.00
2019-03-12T12:53:04.387Z,48.60
2019-03-12T12:55:32.791Z,48.10
2019-03-12T12:58:01.446Z,47.80
2019-03-12T13:00:30.343Z,47.90
2019-03-12T13:02:59.004Z,48.00
2019-03-12T13:05:27.468Z,48.40
2019-03-12T13:07:55.997Z,48.50
2019-03-12T13:10:28.685Z,48.50
2019-03-12T13:12:57.259Z,47.40
2019-03-12T13:15:26.511Z,47.10
2019-03-12T13:17:55.012Z,46.90
2019-03-12T13:20:23.543Z,46.50
2019-03-12T13:22:52.075Z,46.10
2019-03-12T13:25:21.363Z,45.90
2019-03-12T13:27:58.754Z,45.90
2019-03-12T13:30:23.602Z,45.30
2019-03-12T13:32:52.195Z,45.20
2019-03-12T13:35:20.767Z,45.30
2019-03-12T13:37:49.471Z,44.60
2019-03-12T13:40:41.539Z,45.80
2019-03-12T13:43:10.067Z,45.30
2019-03-12T13:45:38.515Z,45.60
2019-03-12T13:48:07.069Z,46.00
2019-03-12T13:50:35.687Z,45.90
2019-03-12T13:53:04.405Z,45.80
2019-03-12T13:55:32.934Z,45.80
2019-03-12T13:58:01.792Z,45.80
2019-03-12T14:00:33.081Z,45.70
2019-03-12T14:03:00.468Z,45.70
2019-03-12T14:05:29.075Z,45.20
2019-03-12T14:07:57.604Z,44.70
2019-03-12T14:10:27.980Z,44.40
2019-03-12T14:12:57.580Z,44.40
2019-03-12T14:15:33.690Z,43.70
2019-03-12T14:18:02.211Z,43.50
2019-03-12T14:20:57.209Z,42.70
2019-03-12T14:23:46.768Z,42.70
2019-03-12T14:26:15.322Z,43.10
2019-03-12T14:28:43.900Z,42.80
2019-03-12T14:31:12.630Z,42.60
2019-03-12T14:34:00.503Z,42.70
2019-03-12T14:36:29.998Z,41.90
2019-03-12T14:38:58.667Z,41.40
2019-03-12T14:41:27.188Z,40.90
2019-03-12T14:43:55.654Z,40.80
2019-03-12T14:46:24.295Z,40.30
2019-03-12T14:48:54.549Z,39.60
2019-03-12T14:51:26.070Z,38.70
2019-03-12T14:54:09.673Z,38.10
2019-03-12T14:56:38.411Z,37.50
2019-03-12T14:59:07.050Z,37.60
2019-03-12T15:01:35.572Z,37.80
2019-03-12T15:04:04.378Z,37.00
2019-03-12T15:06:41.789Z,36.40
2019-03-12T15:09:12.791Z,35.60
2019-03-12T15:11:41.297Z,35.40
2019-03-12T15:14:09.720Z,35.40
2019-03-12T15:16:38.139Z,35.10
2019-03-12T15:19:06.662Z,35.50
2019-03-12T15:21:35.249Z,35.50
2019-03-12T15:24:03.847Z,35.80
2019-03-12T15:26:41.314Z,36.00
2019-03-12T15:29:10.362Z,36.30
2019-03-12T15:31:38.789Z,36.60
2019-03-12T15:34:07.264Z,36.70
2019-03-12T15:36:35.713Z,37.10
2019-03-12T15:39:05.470Z,37.20
2019-03-12T15:41:33.940Z,37.50
2019-03-12T15:44:02.744Z,37.30
2019-03-12T15:46:31.208Z,37.20
2019-03-12T15:48:59.784Z,37.20
2019-03-12T15:51:28.308Z,37.20
2019-03-12T15:53:56.876Z,37.10
2019-03-12T15:56:25.340Z,37.50
2019-03-12T15:58:53.892Z,37.30
2019-03-12T16:01:22.290Z,37.50
2019-03-12T16:03:50.803Z,37.50
2019-03-12T16:06:19.492Z,37.90
2019-03-12T16:08:47.961Z,38.10
2019-03-12T16:11:16.429Z,38.60
2019-03-12T16:13:45.049Z,38.70
2019-03-12T16:16:13.584Z,38.80
2019-03-12T16:18:42.082Z,39.30
2019-03-12T16:21:10.540Z,39.60
2019-03-12T16:23:38.976Z,39.70
2019-03-12T16:26:08.412Z,40.00
2019-03-12T16:28:36.835Z,40.10
2019-03-12T16:31:05.418Z,41.10
2019-03-12T16:33:33.858Z,40.80
2019-03-12T16:36:02.515Z,40.40
2019-03-12T16:38:30.975Z,40.20
2019-03-12T16:40:59.456Z,40.10
2019-03-12T16:43:27.863Z,40.00
2019-03-12T16:45:56.327Z,39.80
2019-03-12T16:48:24.871Z,40.40
2019-03-12T16:50:53.366Z,39.80
2019-03-12T16:53:21.785Z,39.80
2019-03-12T16:55:50.213Z,39.80
2019-03-12T16:58:18.674Z,39.80
2019-03-12T17:00:47.175Z,40.00
2019-03-12T17:03:15.643Z,39.80
2019-03-12T17:05:44.076Z,39.60
2019-03-12T17:08:16.603Z,39.70
2019-03-12T17:10:55.977Z,39.30
2019-03-12T17:13:15.357Z,39.10
2019-03-12T17:15:51.101Z,38.20
2019-03-12T17:18:22.250Z,38.00
2019-03-12T17:20:51.066Z,36.70
2019-03-12T17:23:21.056Z,36.70
2019-03-12T17:25:50.773Z,35.60
2019-03-12T17:28:20.902Z,35.30
2019-03-12T17:30:51.039Z,34.80
2019-03-12T17:33:22.586Z,34.50
2019-03-12T17:35:54.933Z,34.30
2019-03-12T17:38:45.476Z,34.50
2019-03-12T17:41:01.196Z,34.10
2019-03-12T17:43:34.067Z,33.60
2019-03-12T17:46:04.123Z,33.50
2019-03-12T17:48:34.707Z,33.60
2019-03-12T17:51:03.265Z,33.10
2019-03-12T17:53:36.249Z,32.80
2019-03-12T17:56:04.931Z,32.50
2019-03-12T17:58:43.918Z,32.60
2019-03-12T18:01:03.707Z,32.50
2019-03-12T18:03:35.546Z,32.30
2019-03-12T18:06:05.830Z,32.20
2019-03-12T18:08:36.423Z,32.10
2019-03-12T18:11:04.995Z,32.40
2019-03-12T18:13:33.553Z,31.80
2019-03-12T18:16:02.035Z,31.40
2019-03-12T18:18:30.470Z,31.20
2019-03-12T18:20:58.947Z,31.40
2019-03-12T18:23:27.442Z,31.50
2019-03-12T18:25:56.239Z,31.20
2019-03-12T18:28:24.809Z,31.10
2019-03-12T18:30:54.865Z,30.90
2019-03-12T18:33:26.563Z,30.90
2019-03-12T18:35:56.739Z,30.20
2019-03-12T18:38:26.961Z,30.10
2019-03-12T18:40:57.031Z,30.40
2019-03-12T18:43:29.968Z,30.80
2019-03-12T18:45:58.514Z,31.10
2019-03-12T18:48:29.663Z,31.10
2019-03-12T18:50:58.101Z,31.20
2019-03-12T18:53:32.753Z,31.70
2019-03-12T18:56:01.435Z,32.00
2019-03-12T18:58:31.501Z,32.10
2019-03-12T19:01:07.922Z,32.40
2019-03-12T19:03:40.298Z,32.80
2019-03-12T19:06:11.558Z,33.20
2019-03-12T19:08:47.482Z,33.60
2019-03-12T19:11:17.213Z,34.10
2019-03-12T19:13:49.226Z,34.20
2019-03-12T19:16:17.427Z,34.00
2019-03-12T19:18:45.833Z,34.00
2019-03-12T19:21:14.410Z,34.50
2019-03-12T19:23:44.183Z,34.80
2019-03-12T19:26:14.227Z,34.80
2019-03-12T19:28:45.896Z,35.10
2019-03-12T19:31:25.028Z,35.30
2019-03-12T19:33:55.130Z,35.30
2019-03-12T19:36:25.290Z,35.00
2019-03-12T19:38:55.297Z,35.00
2019-03-12T19:41:23.913Z,35.30
2019-03-12T19:43:54.934Z,35.30
2019-03-12T19:46:23.481Z,35.40
2019-03-12T19:48:53.758Z,35.70
2019-03-12T19:51:22.310Z,36.10
2019-03-12T19:53:50.731Z,35.80
2019-03-12T19:56:27.801Z,36.00
2019-03-12T19:58:56.493Z,36.30
2019-03-12T20:01:25.313Z,36.90
2019-03-12T20:04:03.501Z,36.90
2019-03-12T20:06:36.207Z,36.90
2019-03-12T20:09:08.766Z,36.80
2019-03-12T20:11:48.314Z,36.70
2019-03-12T20:14:24.118Z,36.90
2019-03-12T20:17:09.308Z,37.10
2019-03-12T20:19:54.102Z,37.60
2019-03-12T20:22:42.714Z,37.30
2019-03-12T20:25:50.466Z,37.10
2019-03-12T20:28:39.810Z,37.30
2019-03-12T20:31:26.122Z,37.50
2019-03-12T20:34:23.357Z,37.60
2019-03-12T20:37:32.111Z,37.80
2019-03-12T20:40:38.019Z,37.70
2019-03-12T20:43:19.531Z,37.80
2019-03-12T20:46:26.935Z,37.80
2019-03-12T20:49:10.826Z,37.80
2019-03-12T20:52:03.542Z,37.80
2019-03-12T20:55:07.025Z,37.80
2019-03-12T20:57:57.866Z,38.30
2019-03-12T21:00:48.332Z,38.30
2019-03-12T21:03:33.333Z,38.30
2019-03-12T21:06:39.677Z,38.60
2019-03-12T21:09:13.940Z,38.70
2019-03-12T21:12:10.893Z,38.50
2019-03-12T21:14:58.843Z,38.70
2019-03-12T21:17:35.953Z,38.70
2019-03-12T21:20:40.737Z,38.60
2019-03-12T21:23:12.298Z,38.80
2019-03-12T21:26:04.842Z,39.00
2019-03-12T21:28:56.074Z,39.30
2019-03-12T21:31:24.601Z,39.50
2019-03-12T21:33:53.028Z,39.90
2019-03-12T21:36:21.551Z,40.20
2019-03-12T21:38:50.024Z,40.40
2019-03-12T21:41:18.455Z,41.00
2019-03-12T21:43:46.994Z,41.20
2019-03-12T21:46:15.438Z,41.70
2019-03-12T21:48:45.146Z,42.70
2019-03-12T21:51:13.644Z,43.00
2019-03-12T21:53:42.131Z,43.30
2019-03-12T21:56:10.662Z,43.60
2019-03-12T21:58:39.154Z,44.30
2019-03-12T22:01:07.631Z,45.20
2019-03-12T22:03:36.091Z,45.50
2019-03-12T22:06:04.522Z,46.10
2019-03-12T22:08:32.965Z,46.90
2019-03-12T22:11:01.417Z,47.40
2019-03-12T22:13:29.845Z,47.70
2019-03-12T22:15:58.316Z,48.20
2019-03-12T22:18:26.775Z,48.70
2019-03-12T22:20:55.305Z,49.10
2019-03-12T22:23:25.389Z,49.10
2019-03-12T22:25:55.943Z,49.20
2019-03-12T22:28:23.995Z,49.50
2019-03-12T22:30:52.445Z,49.90
2019-03-12T22:33:20.903Z,50.20
2019-03-12T22:35:49.322Z,50.50
2019-03-12T22:38:17.769Z,50.90
2019-03-12T22:40:46.199Z,51.60
2019-03-12T22:43:14.653Z,51.90
2019-03-12T22:45:43.088Z,52.50
2019-03-12T22:48:11.491Z,52.90
2019-03-12T22:50:39.953Z,53.70
2019-03-12T22:53:08.458Z,54.10
2019-03-12T22:55:36.921Z,55.00
2019-03-12T22:58:05.369Z,55.70
2019-03-12T23:00:38.078Z,56.40
2019-03-12T23:03:06.610Z,56.90
2019-03-12T23:05:35.068Z,57.90
2019-03-12T23:08:03.516Z,58.70
2019-03-12T23:10:32.215Z,59.60
2019-03-12T23:13:00.737Z,60.00
2019-03-12T23:15:29.414Z,60.60
2019-03-12T23:17:57.882Z,61.00
2019-03-12T23:20:26.525Z,61.20
2019-03-12T23:22:55.339Z,61.00
2019-03-12T23:25:23.856Z,61.00
2019-03-12T23:27:52.301Z,60.90
2019-03-12T23:30:21.953Z,61.60
2019-03-12T23:32:50.421Z,62.80
2019-03-12T23:35:18.845Z,64.50
2019-03-12T23:37:47.368Z,66.20
2019-03-12T23:40:16.798Z,67.30
2019-03-12T23:42:51.269Z,68.20
2019-03-12T23:45:19.687Z,68.40
2019-03-12T23:47:50.373Z,69.10
2019-03-12T23:50:19.059Z,69.80
2019-03-12T23:52:47.562Z,70.70
2019-03-12T23:55:36.835Z,72.30
2019-03-12T23:58:05.325Z,73.70
